Time;durP1;ratioP1;P1;durP2;ratioP2;P2;SDS_P1;SDS_P2;PMS_P1;PMS_P2;Temp;Humidity;BMP_temperature;BMP_pressure;BME280_temperature;BME280_humidity;BME280_pressure;Samples;Min_cycle;Max_cycle;Signal;HPM_P1;HPM_P2
2024/03/24 00:01:59;;;;;;;4.90;1.90;;;5.50;99.90;;;;;;5075605;28;20040;-65
2024/03/24 00:04:25;;;;;;;5.32;1.70;;;5.60;99.90;;;;;;5055916;28;20048;-65
2024/03/24 00:06:50;;;;;;;6.15;2.10;;;5.60;99.90;;;;;;5060971;28;20066;-65
2024/03/24 00:09:16;;;;;;;9.55;2.20;;;5.60;99.90;;;;;;5057898;28;20059;-65
2024/03/24 00:11:42;;;;;;;10.05;2.58;;;5.60;99.90;;;;;;5093410;28;20047;-65
2024/03/24 00:14:08;;;;;;;7.10;2.35;;;5.70;99.90;;;;;;5094256;28;20057;-65
2024/03/24 00:16:34;;;;;;;10.93;2.67;;;5.70;99.90;;;;;;5058956;28;20089;-65
2024/03/24 00:19:02;;;;;;;8.00;2.67;;;5.60;99.90;;;;;;5054887;28;20119;-65
2024/03/24 00:21:28;;;;;;;9.30;3.38;;;5.60;99.90;;;;;;5055698;28;20059;-65
2024/03/24 00:23:53;;;;;;;8.98;3.20;;;5.70;99.90;;;;;;5093809;28;20057;-65
2024/03/24 00:26:19;;;;;;;5.55;3.58;;;5.60;99.90;;;;;;5071891;28;20164;-65
2024/03/24 00:28:46;;;;;;;10.23;3.60;;;5.60;99.90;;;;;;5058889;28;20048;-65
2024/03/24 00:31:11;;;;;;;9.15;3.88;;;5.60;99.90;;;;;;5054171;28;20155;-65
2024/03/24 00:33:37;;;;;;;7.50;3.45;;;5.60;99.90;;;;;;5069590;28;20142;-65
2024/03/24 00:36:02;;;;;;;7.13;3.55;;;5.60;99.90;;;;;;5060464;28;20044;-65
2024/03/24 00:38:28;;;;;;;7.53;4.07;;;5.60;99.90;;;;;;5076576;28;20494;-65
2024/03/24 00:40:54;;;;;;;8.77;4.25;;;5.50;99.90;;;;;;5058662;28;20036;-65
2024/03/24 00:43:19;;;;;;;9.52;4.25;;;5.50;99.90;;;;;;5053949;28;20044;-65
2024/03/24 00:45:45;;;;;;;7.47;3.83;;;5.50;99.90;;;;;;5073498;28;20044;-65
2024/03/24 00:48:10;;;;;;;9.40;4.43;;;5.50;99.90;;;;;;5073551;28;20045;-65
2024/03/24 00:50:36;;;;;;;9.80;4.43;;;5.50;99.90;;;;;;5079081;28;20039;-64
2024/03/24 00:53:04;;;;;;;7.80;5.07;;;5.50;99.90;;;;;;5078957;28;20102;-65
2024/03/24 00:55:30;;;;;;;10.05;5.50;;;5.50;99.90;;;;;;5074351;28;20047;-65
2024/03/24 00:57:55;;;;;;;8.57;5.22;;;5.50;99.90;;;;;;5069926;28;20029;-65
2024/03/24 01:00:22;;;;;;;12.63;5.05;;;5.50;99.90;;;;;;5055940;28;20028;-65
2024/03/24 01:02:48;;;;;;;11.60;5.10;;;5.50;99.90;;;;;;5056004;28;20036;-65
2024/03/24 01:05:14;;;;;;;14.27;5.45;;;5.50;99.90;;;;;;5069132;28;20478;-65
2024/03/24 01:07:40;;;;;;;13.20;5.88;;;5.60;99.90;;;;;;5058290;28;20051;-65
2024/03/24 01:10:07;;;;;;;9.52;5.13;;;5.60;99.90;;;;;;5074349;28;20122;-65
2024/03/24 01:12:32;;;;;;;6.57;4.95;;;5.60;99.90;;;;;;5073577;28;20043;-65
2024/03/24 01:14:58;;;;;;;8.82;5.07;;;5.60;99.90;;;;;;5072083;28;20044;-65
2024/03/24 01:17:24;;;;;;;6.82;4.40;;;5.60;99.90;;;;;;5054540;28;20033;-65
2024/03/24 01:19:49;;;;;;;6.78;4.93;;;5.70;99.90;;;;;;5054103;28;20040;-64
2024/03/24 01:22:15;;;;;;;8.18;4.57;;;5.70;99.90;;;;;;5059705;28;20040;-65
2024/03/24 01:24:41;;;;;;;7.60;4.00;;;5.70;99.90;;;;;;5055194;28;20028;-65
2024/03/24 01:27:06;;;;;;;7.20;3.90;;;5.70;99.90;;;;;;5052399;28;20056;-65
2024/03/24 01:29:32;;;;;;;6.22;3.28;;;5.70;99.90;;;;;;5073046;28;20032;-65
2024/03/24 01:31:58;;;;;;;2.58;2.20;;;5.70;99.90;;;;;;5074002;28;20040;-65
2024/03/24 01:34:25;;;;;;;3.90;1.95;;;5.70;99.90;;;;;;5074058;28;20398;-64
2024/03/24 01:36:51;;;;;;;4.55;1.95;;;5.70;99.90;;;;;;5071199;28;20047;-65
2024/03/24 01:39:16;;;;;;;3.70;2.33;;;5.70;99.90;;;;;;5057122;28;20033;-65
2024/03/24 01:41:42;;;;;;;5.05;2.67;;;5.70;99.90;;;;;;5051383;28;20040;-65
2024/03/24 01:44:07;;;;;;;5.18;2.78;;;5.70;99.90;;;;;;5073821;28;20048;-65
2024/03/24 01:46:33;;;;;;;5.68;2.28;;;5.70;99.90;;;;;;5057156;28;20135;-65
2024/03/24 01:49:00;;;;;;;5.28;1.98;;;5.60;99.90;;;;;;5058739;28;20040;-65
2024/03/24 01:51:25;;;;;;;3.25;1.55;;;5.70;99.90;;;;;;5074714;28;20514;-65
2024/03/24 01:53:54;;;;;;;2.67;1.55;;;5.60;99.90;;;;;;5057016;28;20036;-65
2024/03/24 01:56:20;;;;;;;2.85;1.60;;;5.60;99.90;;;;;;5055610;28;20387;-65
2024/03/24 01:58:45;;;;;;;7.60;2.13;;;5.60;99.90;;;;;;5055078;28;20036;-65
2024/03/24 02:01:11;;;;;;;3.13;1.98;;;5.60;99.90;;;;;;5059123;28;20432;-65
2024/03/24 02:03:37;;;;;;;5.50;2.13;;;5.60;99.90;;;;;;5058236;28;20630;-65
2024/03/24 02:06:04;;;;;;;4.57;2.05;;;5.60;99.90;;;;;;5056002;28;20151;-65
2024/03/24 02:08:30;;;;;;;5.13;2.53;;;5.60;99.90;;;;;;5058241;28;20049;-65
2024/03/24 02:10:57;;;;;;;2.88;2.10;;;5.50;99.90;;;;;;5064253;28;20044;-65
2024/03/24 02:13:23;;;;;;;3.33;1.50;;;5.50;99.90;;;;;;5075892;28;20036;-65
2024/03/24 02:15:52;;;;;;;2.40;1.17;;;5.50;99.90;;;;;;5062109;28;20223;-65
2024/03/24 02:18:18;;;;;;;3.10;1.98;;;5.50;99.90;;;;;;5060824;28;20127;-65
2024/03/24 02:20:43;;;;;;;2.92;2.20;;;5.40;99.90;;;;;;5060702;28;20538;-65
2024/03/24 02:23:09;;;;;;;4.90;1.65;;;5.40;99.90;;;;;;5057213;28;20553;-65
2024/03/24 02:25:35;;;;;;;2.35;1.50;;;5.30;99.90;;;;;;5076009;28;20055;-65
2024/03/24 02:28:01;;;;;;;2.20;1.33;;;5.40;99.90;;;;;;5063101;28;20474;-65
2024/03/24 02:30:27;;;;;;;3.40;1.55;;;5.40;99.90;;;;;;5077414;28;20039;-65
2024/03/24 02:32:53;;;;;;;5.80;1.45;;;5.40;99.90;;;;;;5060000;28;20040;-64
2024/03/24 02:35:19;;;;;;;2.72;1.38;;;5.40;99.90;;;;;;5053889;28;20052;-64
2024/03/24 02:37:44;;;;;;;1.83;1.42;;;5.40;99.90;;;;;;5074666;28;20032;-65
2024/03/24 02:40:10;;;;;;;2.95;1.33;;;5.40;99.90;;;;;;5059899;28;20457;-65
2024/03/24 02:42:37;;;;;;;3.15;1.40;;;5.40;99.90;;;;;;5065730;28;20502;-65
2024/03/24 02:45:04;;;;;;;3.67;1.30;;;5.40;99.90;;;;;;5075477;28;20040;-65
2024/03/24 02:47:31;;;;;;;2.25;1.30;;;5.40;99.90;;;;;;5076015;28;20028;-65
2024/03/24 02:50:00;;;;;;;2.72;1.25;;;5.50;99.90;;;;;;5074234;28;20037;-65
2024/03/24 02:52:26;;;;;;;2.17;0.93;;;5.50;99.90;;;;;;5058237;28;20525;-65
2024/03/24 02:54:51;;;;;;;3.67;1.23;;;5.40;99.90;;;;;;5055573;28;20036;-65
2024/03/24 02:57:17;;;;;;;2.53;1.10;;;5.40;99.90;;;;;;5060398;28;20040;-65
2024/03/24 02:59:42;;;;;;;2.78;1.00;;;5.50;99.90;;;;;;5073713;28;20036;-64
2024/03/24 03:02:10;;;;;;;4.18;1.20;;;5.50;99.90;;;;;;5058858;28;20056;-64
2024/03/24 03:04:35;;;;;;;6.68;1.00;;;5.50;99.90;;;;;;5075871;28;20036;-65
2024/03/24 03:07:01;;;;;;;2.22;1.02;;;5.40;99.90;;;;;;5058575;28;20040;-64
2024/03/24 03:09:26;;;;;;;5.15;1.10;;;5.40;99.90;;;;;;5079855;28;20036;-65
2024/03/24 03:11:53;;;;;;;4.10;0.90;;;5.50;99.90;;;;;;5076658;28;20063;-64
2024/03/24 03:14:19;;;;;;;1.88;0.98;;;5.40;99.90;;;;;;5075360;28;20037;-64
2024/03/24 03:16:45;;;;;;;4.00;0.98;;;5.50;99.90;;;;;;5055449;28;20044;-65
2024/03/24 03:19:14;;;;;;;2.85;1.30;;;5.50;99.90;;;;;;5058991;28;20032;-65
2024/03/24 03:21:40;;;;;;;2.67;1.10;;;5.50;99.90;;;;;;5057706;28;20032;-64
2024/03/24 03:24:06;;;;;;;2.67;1.08;;;5.50;99.90;;;;;;5074625;28;20073;-64
2024/03/24 03:26:31;;;;;;;3.35;0.80;;;5.40;99.90;;;;;;5059792;28;20493;-64
2024/03/24 03:28:57;;;;;;;3.53;1.13;;;5.50;99.90;;;;;;5059441;28;20751;-64
2024/03/24 03:31:23;;;;;;;3.53;0.80;;;5.50;99.90;;;;;;5056720;28;20035;-65
2024/03/24 03:33:48;;;;;;;2.40;0.57;;;5.50;99.90;;;;;;5076393;28;20095;-65
2024/03/24 03:36:14;;;;;;;1.88;0.63;;;5.50;99.90;;;;;;5074289;28;20036;-64
2024/03/24 03:38:40;;;;;;;2.00;0.75;;;5.50;99.90;;;;;;5056147;28;20494;-65
2024/03/24 03:41:08;;;;;;;4.20;0.70;;;5.50;99.90;;;;;;5076383;28;20565;-65
2024/03/24 03:43:33;;;;;;;2.17;0.73;;;5.50;99.90;;;;;;5071609;28;20078;-64
2024/03/24 03:46:00;;;;;;;3.53;0.80;;;5.50;99.90;;;;;;5058457;28;20445;-64
2024/03/24 03:48:25;;;;;;;3.33;0.90;;;5.60;99.90;;;;;;5056034;28;20044;-64
2024/03/24 03:50:51;;;;;;;2.45;0.63;;;5.50;99.90;;;;;;5076423;28;20040;-64
2024/03/24 03:53:24;;;;;;;3.03;0.85;;;5.50;99.90;;;;;;5077130;28;20387;-64
2024/03/24 03:55:51;;;;;;;3.75;1.00;;;5.50;99.90;;;;;;5056088;28;20119;-64
2024/03/24 03:58:22;;;;;;;4.03;0.95;;;5.50;99.90;;;;;;5059457;28;20072;-65
2024/03/24 04:00:48;;;;;;;2.45;0.93;;;5.60;99.90;;;;;;5088075;28;20032;-64
2024/03/24 04:03:14;;;;;;;2.83;0.88;;;5.50;99.90;;;;;;5059010;28;20085;-64
2024/03/24 04:05:40;;;;;;;3.90;1.00;;;5.60;99.90;;;;;;5071988;28;20484;-64
2024/03/24 04:08:07;;;;;;;3.47;1.17;;;5.60;99.90;;;;;;5075052;28;20617;-64
2024/03/24 04:10:37;;;;;;;4.85;1.27;;;5.60;99.90;;;;;;5077305;28;20032;-65
2024/03/24 04:13:04;;;;;;;5.60;1.30;;;5.60;99.90;;;;;;5055295;28;20071;-65
2024/03/24 04:15:30;;;;;;;4.13;1.27;;;5.60;99.90;;;;;;5074497;28;21521;-64
2024/03/24 04:17:56;;;;;;;3.35;1.10;;;5.60;99.90;;;;;;5073616;28;20107;-64
2024/03/24 04:20:22;;;;;;;4.90;1.20;;;5.60;99.90;;;;;;5075957;28;20089;-64
2024/03/24 04:22:48;;;;;;;3.15;1.15;;;5.70;99.90;;;;;;5056416;28;20429;-65
2024/03/24 04:25:14;;;;;;;3.97;1.48;;;5.60;99.90;;;;;;5075539;28;20040;-65
2024/03/24 04:27:40;;;;;;;4.63;1.60;;;5.70;99.90;;;;;;5072979;28;20032;-65
2024/03/24 04:30:07;;;;;;;9.65;2.03;;;5.70;99.90;;;;;;5058242;28;20445;-64
2024/03/24 04:32:33;;;;;;;6.63;1.80;;;5.70;99.90;;;;;;5058170;28;20040;-64
2024/03/24 04:35:00;;;;;;;4.30;1.33;;;5.70;99.90;;;;;;5070295;28;20028;-64
2024/03/24 04:37:25;;;;;;;8.07;1.70;;;5.70;99.90;;;;;;5058997;28;20031;-65
2024/03/24 04:39:51;;;;;;;4.18;1.55;;;5.70;99.90;;;;;;5060605;28;20044;-64
2024/03/24 04:42:17;;;;;;;5.95;1.35;;;5.70;99.90;;;;;;5058667;28;20033;-64
2024/03/24 04:44:42;;;;;;;3.92;1.50;;;5.70;99.90;;;;;;5062017;28;20040;-64
2024/03/24 04:47:08;;;;;;;7.57;1.60;;;5.70;99.90;;;;;;5074920;28;20032;-64
2024/03/24 04:49:35;;;;;;;4.85;1.13;;;5.70;99.90;;;;;;5071194;28;20054;-64
2024/03/24 04:52:01;;;;;;;5.20;1.83;;;5.60;99.90;;;;;;5051918;28;20094;-64
2024/03/24 04:54:26;;;;;;;4.75;1.33;;;5.70;99.90;;;;;;5077265;28;20059;-64
2024/03/24 04:56:52;;;;;;;4.35;1.02;;;5.70;99.90;;;;;;5074542;28;20037;-64
2024/03/24 04:59:17;;;;;;;4.75;1.30;;;5.60;99.90;;;;;;5060580;28;20028;-64
2024/03/24 05:01:43;;;;;;;3.15;1.17;;;5.60;99.90;;;;;;5076498;28;20036;-64
2024/03/24 05:04:10;;;;;;;7.72;0.95;;;5.60;99.90;;;;;;5056167;28;20036;-64
2024/03/24 05:06:36;;;;;;;5.45;1.77;;;5.60;99.90;;;;;;5073022;28;20039;-64
2024/03/24 05:09:02;;;;;;;6.97;1.27;;;5.50;99.90;;;;;;5074822;28;20044;-65
2024/03/24 05:11:27;;;;;;;6.95;1.20;;;5.50;99.90;;;;;;5070243;28;20051;-65
2024/03/24 05:13:53;;;;;;;7.20;1.10;;;5.50;99.90;;;;;;5073974;28;20032;-64
2024/03/24 05:16:19;;;;;;;8.68;1.10;;;5.40;99.90;;;;;;5071423;28;20466;-65
2024/03/24 05:18:44;;;;;;;5.07;1.30;;;5.40;99.90;;;;;;5055699;28;20051;-64
2024/03/24 05:21:10;;;;;;;9.13;1.27;;;5.40;99.90;;;;;;5071492;28;20035;-64
2024/03/24 05:23:36;;;;;;;6.53;1.40;;;5.40;99.90;;;;;;5053674;28;20544;-64
2024/03/24 05:26:01;;;;;;;9.73;2.13;;;5.40;99.90;;;;;;5071892;28;20040;-64
2024/03/24 05:28:27;;;;;;;4.47;0.73;;;5.40;99.90;;;;;;5057771;28;20040;-64
2024/03/24 05:30:53;;;;;;;7.68;1.08;;;5.40;99.90;;;;;;5052229;28;20044;-64
2024/03/24 05:33:19;;;;;;;4.18;1.50;;;5.40;99.90;;;;;;5051037;28;20044;-65
2024/03/24 05:35:45;;;;;;;5.07;1.10;;;5.50;99.90;;;;;;5070067;28;20041;-65
2024/03/24 05:38:12;;;;;;;4.05;0.70;;;5.50;99.90;;;;;;5068570;28;20036;-65
2024/03/24 05:40:38;;;;;;;6.35;0.77;;;5.40;99.90;;;;;;5075110;28;20036;-65
2024/03/24 05:43:05;;;;;;;6.53;0.65;;;5.50;99.90;;;;;;5072172;28;20449;-64
2024/03/24 05:45:35;;;;;;;5.50;1.00;;;5.40;99.90;;;;;;5079087;28;20478;-64
2024/03/24 05:48:04;;;;;;;3.85;0.60;;;5.40;99.90;;;;;;5074389;28;20079;-65
2024/03/24 05:50:30;;;;;;;6.85;0.77;;;5.40;99.90;;;;;;5077346;28;20059;-65
2024/03/24 05:52:56;;;;;;;6.93;1.02;;;5.50;99.90;;;;;;5094529;28;20040;-64
2024/03/24 05:55:21;;;;;;;7.38;1.35;;;5.50;99.90;;;;;;5079171;28;20049;-64
2024/03/24 05:57:48;;;;;;;5.80;1.20;;;5.50;99.90;;;;;;5078870;28;20024;-64
2024/03/24 06:00:14;;;;;;;5.68;0.70;;;5.50;99.90;;;;;;5077697;28;20044;-64
2024/03/24 06:02:40;;;;;;;6.80;1.05;;;5.60;99.90;;;;;;5074567;28;20032;-64
2024/03/24 06:05:09;;;;;;;5.32;1.27;;;5.60;99.90;;;;;;5048532;28;20052;-64
2024/03/24 06:07:35;;;;;;;4.78;1.00;;;5.70;99.90;;;;;;5063012;28;20043;-64
2024/03/24 06:10:00;;;;;;;4.22;0.85;;;5.70;99.90;;;;;;5062326;28;20032;-65
2024/03/24 06:12:27;;;;;;;5.82;1.00;;;5.70;99.90;;;;;;5080737;28;20040;-64
2024/03/24 06:14:52;;;;;;;7.80;0.93;;;5.70;99.90;;;;;;5075796;28;20092;-64
2024/03/24 06:17:18;;;;;;;5.53;0.82;;;5.80;99.90;;;;;;5056912;28;20060;-64
2024/03/24 06:19:44;;;;;;;5.60;0.90;;;5.80;99.90;;;;;;5062182;28;20047;-64
2024/03/24 06:22:09;;;;;;;8.23;1.33;;;5.70;99.90;;;;;;5057943;28;20117;-65
2024/03/24 06:24:36;;;;;;;7.50;1.52;;;5.80;99.90;;;;;;5059934;28;20039;-64
2024/03/24 06:27:01;;;;;;;8.43;1.13;;;5.90;99.90;;;;;;5078936;28;20040;-65
2024/03/24 06:29:27;;;;;;;6.68;0.95;;;5.90;99.90;;;;;;5079464;28;20059;-64
2024/03/24 06:31:53;;;;;;;12.07;1.58;;;5.90;99.90;;;;;;5055305;28;20123;-64
2024/03/24 06:34:18;;;;;;;9.05;1.30;;;6.00;99.90;;;;;;5060680;28;20590;-64
2024/03/24 06:36:44;;;;;;;6.38;1.10;;;6.00;99.90;;;;;;5077161;28;20176;-64
2024/03/24 06:39:14;;;;;;;8.88;1.15;;;6.00;99.90;;;;;;5059593;28;20052;-65
2024/03/24 06:41:42;;;;;;;6.15;1.23;;;6.00;99.90;;;;;;5057065;28;20059;-65
2024/03/24 06:44:13;;;;;;;9.15;1.38;;;6.10;99.90;;;;;;5060258;28;20048;-65
2024/03/24 06:46:42;;;;;;;12.77;1.75;;;6.00;99.90;;;;;;5075585;28;20074;-65
2024/03/24 06:49:14;;;;;;;8.13;2.00;;;6.00;99.90;;;;;;5057932;28;20085;-65
2024/03/24 06:51:40;;;;;;;6.70;1.05;;;6.00;99.90;;;;;;5075406;28;20085;-65
2024/03/24 06:54:06;;;;;;;8.10;1.20;;;6.00;99.90;;;;;;5079030;28;20048;-65
2024/03/24 06:56:31;;;;;;;7.95;0.82;;;5.90;99.90;;;;;;5062681;28;20036;-65
2024/03/24 06:58:57;;;;;;;8.10;0.98;;;5.90;99.90;;;;;;5063137;28;20417;-65
2024/03/24 07:01:22;;;;;;;6.88;0.70;;;5.90;99.90;;;;;;5074832;28;20103;-64
2024/03/24 07:03:48;;;;;;;7.50;1.60;;;5.90;99.90;;;;;;5059710;28;20036;-65
2024/03/24 07:06:14;;;;;;;5.30;0.90;;;5.80;99.90;;;;;;5062898;28;20482;-65
2024/03/24 07:08:41;;;;;;;10.20;1.05;;;5.80;99.90;;;;;;5078265;28;20040;-65
2024/03/24 07:11:07;;;;;;;6.95;0.88;;;5.80;99.90;;;;;;5060602;28;20123;-65
2024/03/24 07:13:33;;;;;;;5.60;0.70;;;5.80;99.90;;;;;;5060012;28;20078;-65
2024/03/24 07:15:59;;;;;;;6.70;1.42;;;5.70;99.90;;;;;;5052549;28;20036;-65
2024/03/24 07:18:24;;;;;;;8.50;1.20;;;5.80;99.90;;;;;;5075106;28;20020;-65
2024/03/24 07:21:00;;;;;;;9.80;1.38;;;5.80;99.90;;;;;;5053408;28;20107;-65
2024/03/24 07:23:26;;;;;;;11.43;2.42;;;5.80;99.90;;;;;;5072689;28;20474;-65
2024/03/24 07:25:52;;;;;;;11.30;2.45;;;6.00;99.90;;;;;;5056861;28;20127;-64
2024/03/24 07:28:18;;;;;;;15.23;1.75;;;6.10;99.90;;;;;;5054101;28;20072;-65
2024/03/24 07:30:44;;;;;;;8.05;1.35;;;6.40;99.90;;;;;;5070802;28;20067;-65
2024/03/24 07:33:11;;;;;;;10.57;1.63;;;6.70;99.90;;;;;;5071369;28;20039;-65
2024/03/24 07:35:37;;;;;;;11.55;1.77;;;7.00;99.90;;;;;;5054487;28;20084;-65
2024/03/24 07:38:05;;;;;;;9.55;1.58;;;7.00;99.90;;;;;;5059027;28;20033;-65
2024/03/24 07:40:33;;;;;;;18.42;1.90;;;7.10;99.90;;;;;;5052378;28;20133;-65
2024/03/24 07:42:59;;;;;;;10.82;1.98;;;7.00;99.90;;;;;;5072371;28;20032;-65
2024/03/24 07:45:24;;;;;;;11.55;1.30;;;6.90;99.90;;;;;;5072769;28;20031;-65
2024/03/24 07:47:51;;;;;;;9.25;1.08;;;6.80;99.90;;;;;;5075239;28;20126;-65
2024/03/24 07:50:17;;;;;;;8.30;0.90;;;6.70;99.90;;;;;;5058016;28;20470;-65
2024/03/24 07:52:43;;;;;;;5.55;0.95;;;6.50;99.90;;;;;;5060318;28;20040;-65
2024/03/24 07:55:08;;;;;;;7.55;1.02;;;6.50;99.90;;;;;;5074044;28;20040;-65
2024/03/24 07:57:35;;;;;;;9.00;1.00;;;6.40;99.90;;;;;;5059020;28;20035;-65
2024/03/24 08:00:00;;;;;;;4.78;0.57;;;6.30;99.90;;;;;;5050049;28;20036;-65
2024/03/24 08:02:26;;;;;;;3.70;0.57;;;6.30;99.90;;;;;;5071986;28;20047;-65
2024/03/24 08:04:51;;;;;;;4.00;0.60;;;6.40;99.90;;;;;;5053268;28;20124;-65
2024/03/24 08:07:17;;;;;;;4.60;0.68;;;6.40;99.90;;;;;;5069123;28;20048;-65
2024/03/24 08:09:43;;;;;;;4.47;0.65;;;6.30;99.90;;;;;;5071691;28;20039;-65
2024/03/24 08:12:08;;;;;;;3.38;0.50;;;6.30;99.90;;;;;;5076903;28;20032;-65
2024/03/24 08:14:34;;;;;;;6.70;0.80;;;6.30;99.90;;;;;;5057749;28;20037;-65
2024/03/24 08:17:00;;;;;;;4.93;0.85;;;6.30;99.90;;;;;;5074955;28;20036;-65
2024/03/24 08:19:26;;;;;;;6.57;1.10;;;6.20;99.90;;;;;;5073179;28;20111;-65
2024/03/24 08:21:56;;;;;;;5.70;0.60;;;6.10;99.90;;;;;;5072003;28;20487;-65
2024/03/24 08:24:22;;;;;;;6.07;0.95;;;6.10;99.90;;;;;;5085734;28;20483;-65
2024/03/24 08:26:47;;;;;;;7.68;0.88;;;6.10;99.90;;;;;;5072088;28;20093;-65
2024/03/24 08:29:15;;;;;;;6.18;0.80;;;6.10;99.90;;;;;;5075786;28;20081;-65
2024/03/24 08:31:40;;;;;;;7.45;1.17;;;6.10;99.90;;;;;;5056181;28;20044;-65
2024/03/24 08:34:06;;;;;;;3.35;0.35;;;6.10;99.90;;;;;;5071486;28;20055;-65
2024/03/24 08:36:31;;;;;;;3.35;0.40;;;6.20;99.90;;;;;;5059488;28;20040;-65
2024/03/24 08:38:57;;;;;;;4.88;0.60;;;6.30;99.90;;;;;;5058327;28;20040;-65
2024/03/24 08:41:23;;;;;;;5.28;0.80;;;6.40;99.90;;;;;;5059043;28;20501;-65
2024/03/24 08:43:48;;;;;;;8.63;0.60;;;6.50;99.90;;;;;;5057690;28;20043;-64
2024/03/24 08:46:15;;;;;;;3.78;0.40;;;6.50;99.90;;;;;;5074743;28;20047;-64
2024/03/24 08:48:41;;;;;;;3.45;0.60;;;6.60;99.90;;;;;;5073227;28;20079;-64
2024/03/24 08:51:07;;;;;;;2.97;0.40;;;6.60;99.90;;;;;;5059739;28;20474;-64
2024/03/24 08:53:32;;;;;;;4.15;0.40;;;6.60;99.90;;;;;;5055820;28;20052;-64
2024/03/24 08:55:58;;;;;;;3.15;0.40;;;6.70;99.90;;;;;;5056662;28;20513;-65
2024/03/24 08:58:24;;;;;;;4.63;0.77;;;6.70;99.90;;;;;;5090052;28;20539;-65
2024/03/24 09:00:53;;;;;;;3.92;0.30;;;6.70;99.90;;;;;;5038558;28;20116;-64
2024/03/24 09:03:19;;;;;;;2.83;0.20;;;6.60;99.90;;;;;;5073398;28;20036;-65
2024/03/24 09:05:44;;;;;;;1.77;0.30;;;6.60;99.90;;;;;;5057808;28;20043;-65
2024/03/24 09:08:10;;;;;;;5.88;0.52;;;6.70;99.90;;;;;;5071373;28;20055;-64
2024/03/24 09:10:36;;;;;;;4.82;0.50;;;6.70;99.90;;;;;;5058542;28;20394;-64
2024/03/24 09:13:02;;;;;;;3.33;0.40;;;6.80;99.90;;;;;;5070805;28;20118;-64
2024/03/24 09:15:27;;;;;;;5.00;0.70;;;6.80;99.90;;;;;;5073422;28;20044;-65
2024/03/24 09:17:53;;;;;;;2.10;0.32;;;6.80;99.90;;;;;;5050086;28;20047;-65
2024/03/24 09:20:19;;;;;;;4.40;0.40;;;6.90;99.90;;;;;;5073718;28;20028;-64
2024/03/24 09:22:45;;;;;;;5.35;0.80;;;7.00;99.90;;;;;;5075011;28;20062;-65
2024/03/24 09:25:11;;;;;;;5.80;0.85;;;7.20;99.90;;;;;;5056601;28;20515;-64
2024/03/24 09:27:37;;;;;;;5.63;0.75;;;7.30;99.90;;;;;;5076069;28;20032;-65
2024/03/24 09:30:03;;;;;;;5.50;0.95;;;7.40;99.90;;;;;;5078025;28;20056;-64
2024/03/24 09:32:29;;;;;;;7.85;0.77;;;7.40;99.90;;;;;;5073018;28;20032;-64
2024/03/24 09:34:54;;;;;;;5.93;0.70;;;7.50;99.90;;;;;;5060223;28;20082;-65
2024/03/24 09:37:20;;;;;;;4.63;1.63;;;7.60;99.90;;;;;;5061175;28;20501;-65
2024/03/24 09:39:46;;;;;;;8.35;1.40;;;7.60;99.90;;;;;;5057766;28;20048;-65
2024/03/24 09:42:13;;;;;;;6.85;1.38;;;7.70;99.90;;;;;;5079564;28;20124;-65
2024/03/24 09:44:41;;;;;;;8.88;1.67;;;7.90;99.90;;;;;;5061372;28;20073;-64
2024/03/24 09:47:07;;;;;;;7.13;1.00;;;8.00;99.90;;;;;;5071847;28;21478;-64
2024/03/24 09:49:34;;;;;;;4.53;1.20;;;8.20;99.90;;;;;;5075941;28;20033;-64
2024/03/24 09:52:01;;;;;;;7.07;1.92;;;8.20;99.90;;;;;;5059903;28;20494;-64
2024/03/24 09:54:27;;;;;;;6.88;1.45;;;8.30;99.90;;;;;;5076365;28;20135;-65
2024/03/24 09:56:53;;;;;;;13.15;2.20;;;8.30;99.90;;;;;;5074229;28;20542;-65
2024/03/24 09:59:20;;;;;;;9.30;2.45;;;8.30;99.90;;;;;;5059530;28;20047;-65
2024/03/24 10:01:47;;;;;;;11.13;2.38;;;8.10;99.90;;;;;;5075982;28;20086;-65
2024/03/24 10:04:15;;;;;;;10.20;1.70;;;8.10;99.90;;;;;;5076108;28;20041;-65
2024/03/24 10:06:41;;;;;;;13.15;2.00;;;8.00;99.90;;;;;;5056764;28;20110;-65
2024/03/24 10:09:07;;;;;;;10.13;1.60;;;7.90;99.90;;;;;;5074152;28;20135;-65
2024/03/24 10:11:34;;;;;;;11.27;2.05;;;7.90;99.90;;;;;;5058090;28;20143;-65
2024/03/24 10:14:02;;;;;;;8.90;2.10;;;7.80;99.90;;;;;;5075389;28;20540;-65
2024/03/24 10:16:28;;;;;;;6.63;1.10;;;7.70;99.90;;;;;;5079587;28;20040;-65
2024/03/24 10:18:53;;;;;;;7.75;1.17;;;7.60;99.90;;;;;;5077475;28;20035;-65
2024/03/24 10:21:20;;;;;;;6.30;1.23;;;7.30;99.90;;;;;;5089471;28;20040;-65
2024/03/24 10:23:47;;;;;;;5.82;0.95;;;7.10;99.90;;;;;;5070765;28;20089;-65
2024/03/24 10:26:22;;;;;;;9.43;1.58;;;7.00;99.90;;;;;;5055163;28;20079;-65
2024/03/24 10:28:49;;;;;;;10.98;1.92;;;7.00;99.90;;;;;;5074741;28;20048;-65
2024/03/24 10:31:15;;;;;;;10.25;1.65;;;7.10;99.90;;;;;;5074761;28;20040;-64
2024/03/24 10:33:42;;;;;;;11.27;2.40;;;7.10;99.90;;;;;;5055255;28;20424;-65
2024/03/24 10:36:08;;;;;;;12.35;2.92;;;7.20;99.90;;;;;;5059096;28;20064;-65
2024/03/24 10:38:36;;;;;;;8.68;1.92;;;7.40;99.90;;;;;;5060910;28;20109;-65
2024/03/24 10:41:04;;;;;;;9.68;1.33;;;7.60;99.90;;;;;;5059297;28;20150;-65
2024/03/24 10:43:32;;;;;;;10.75;2.50;;;7.80;99.90;;;;;;5079324;28;20162;-65
2024/03/24 10:45:59;;;;;;;14.65;2.47;;;8.10;99.90;;;;;;5074784;28;20067;-65
2024/03/24 10:48:29;;;;;;;19.27;3.47;;;8.20;99.90;;;;;;5076297;28;20075;-65
2024/03/24 10:50:56;;;;;;;16.15;3.28;;;8.50;99.90;;;;;;5060143;28;20075;-65
2024/03/24 10:53:25;;;;;;;14.48;2.60;;;8.70;99.90;;;;;;5078581;28;20467;-65
2024/03/24 10:55:52;;;;;;;14.75;2.70;;;8.80;99.90;;;;;;5042330;28;20117;-65
2024/03/24 10:58:21;;;;;;;10.52;3.28;;;9.20;99.90;;;;;;5076070;28;20037;-65
2024/03/24 11:00:48;;;;;;;19.10;3.03;;;9.40;99.90;;;;;;5057429;28;20036;-65
2024/03/24 11:03:15;;;;;;;14.77;3.10;;;9.60;99.90;;;;;;5059399;28;20041;-65
2024/03/24 11:05:48;;;;;;;11.77;2.72;;;9.70;99.90;;;;;;5076080;28;20036;-65
2024/03/24 11:08:15;;;;;;;17.88;2.65;;;9.80;99.90;;;;;;5077101;28;20106;-65
2024/03/24 11:10:49;;;;;;;18.67;3.65;;;9.70;99.90;;;;;;5075304;28;20622;-65
2024/03/24 11:13:21;;;;;;;18.10;3.78;;;9.70;99.90;;;;;;5075918;28;20031;-65
2024/03/24 11:15:48;;;;;;;14.82;2.22;;;9.50;99.90;;;;;;5056394;28;20041;-65
2024/03/24 11:18:22;;;;;;;10.40;1.73;;;9.30;99.90;;;;;;5059617;28;20581;-65
2024/03/24 11:20:55;;;;;;;17.90;2.75;;;9.20;99.90;;;;;;5059037;28;20048;-65
2024/03/24 11:23:23;;;;;;;9.10;1.92;;;9.30;99.90;;;;;;5089522;28;20055;-65
2024/03/24 11:25:59;;;;;;;13.15;2.75;;;9.50;99.90;;;;;;5076966;28;20078;-65
2024/03/24 11:28:52;;;;;;;14.93;3.03;;;9.70;99.90;;;;;;5072174;28;20794;-65
2024/03/24 11:31:21;;;;;;;11.70;2.28;;;9.90;99.90;;;;;;5072636;28;20090;-65
2024/03/24 11:34:06;;;;;;;8.38;1.63;;;9.80;99.90;;;;;;5055135;28;20105;-65
2024/03/24 11:36:35;;;;;;;7.75;1.60;;;9.50;99.90;;;;;;5076479;28;20044;-65
2024/03/24 11:39:04;;;;;;;9.25;1.15;;;9.30;99.90;;;;;;5073833;28;20041;-64
2024/03/24 11:41:30;;;;;;;14.05;2.63;;;9.30;99.90;;;;;;5073027;28;20044;-65
2024/03/24 11:43:57;;;;;;;11.77;2.30;;;9.40;99.90;;;;;;5061568;28;20040;-65
2024/03/24 11:46:23;;;;;;;17.02;3.28;;;9.50;99.90;;;;;;5060144;28;20063;-65
2024/03/24 11:48:56;;;;;;;11.32;2.05;;;9.60;99.90;;;;;;5074868;28;20147;-65
2024/03/24 11:51:23;;;;;;;12.52;2.63;;;9.90;99.90;;;;;;5072216;28;20089;-65
2024/03/24 11:53:53;;;;;;;10.68;2.03;;;10.20;99.90;;;;;;5078738;28;20043;-65
2024/03/24 11:56:23;;;;;;;11.43;2.22;;;10.50;99.90;;;;;;5077442;28;20051;-65
2024/03/24 11:58:51;;;;;;;8.93;2.13;;;10.60;99.90;;;;;;5089675;28;20044;-65
2024/03/24 12:01:18;;;;;;;12.30;2.20;;;10.70;99.90;;;;;;5061652;28;20047;-65
2024/03/24 12:03:44;;;;;;;10.65;2.65;;;10.60;99.90;;;;;;5078151;28;20120;-65
2024/03/24 12:06:13;;;;;;;11.18;2.20;;;10.60;99.90;;;;;;5090866;28;20140;-65
2024/03/24 12:08:40;;;;;;;6.65;1.60;;;10.40;99.90;;;;;;5057705;28;20514;-65
2024/03/24 12:11:06;;;;;;;18.52;3.60;;;10.30;99.90;;;;;;5073156;28;20048;-65
2024/03/24 12:13:34;;;;;;;8.07;2.08;;;10.20;99.90;;;;;;5073389;28;20151;-65
2024/03/24 12:16:00;;;;;;;11.98;2.20;;;10.30;99.90;;;;;;5059062;28;20048;-65
2024/03/24 12:18:26;;;;;;;10.85;2.13;;;10.30;99.90;;;;;;5077198;28;20028;-65
2024/03/24 12:20:52;;;;;;;13.75;2.53;;;10.30;99.90;;;;;;5075402;28;20115;-65
2024/03/24 12:23:18;;;;;;;13.48;2.15;;;10.20;99.90;;;;;;5053546;28;20085;-64
2024/03/24 12:25:46;;;;;;;12.93;2.72;;;10.00;99.90;;;;;;5071477;28;20047;-65
2024/03/24 12:28:17;;;;;;;16.13;2.83;;;9.90;99.90;;;;;;5056479;28;20111;-65
2024/03/24 12:30:53;;;;;;;14.90;2.42;;;9.90;99.90;;;;;;5058828;28;20048;-65
2024/03/24 12:33:20;;;;;;;12.40;2.42;;;9.90;99.90;;;;;;5057933;28;20123;-65
2024/03/24 12:35:50;;;;;;;16.48;3.08;;;9.70;99.90;;;;;;5061005;28;20043;-65
2024/03/24 12:38:17;;;;;;;9.60;2.30;;;9.50;99.90;;;;;;5058599;28;20474;-65
2024/03/24 12:40:56;;;;;;;5.53;1.00;;;9.20;99.90;;;;;;5057864;28;20048;-65
2024/03/24 12:43:29;;;;;;;8.15;1.42;;;8.90;99.90;;;;;;5054932;28;20992;-65
2024/03/24 12:45:56;;;;;;;10.90;1.25;;;8.50;99.90;;;;;;5075891;28;20043;-65
2024/03/24 12:48:25;;;;;;;10.40;1.90;;;8.50;99.90;;;;;;5074855;28;20044;-65
2024/03/24 12:50:52;;;;;;;13.32;2.30;;;8.40;99.90;;;;;;5057850;28;20070;-65
2024/03/24 12:53:28;;;;;;;13.13;2.38;;;8.50;99.90;;;;;;5055279;28;20044;-65